createdAt,value
2017-10-14T00:00:28.537Z,80.80
2017-10-14T00:03:03.176Z,81.50
2017-10-14T00:05:37.536Z,80.80
2017-10-14T00:08:11.364Z,80.80
2017-10-14T00:10:45.125Z,80.90
2017-10-14T00:13:19.018Z,80.90
2017-10-14T00:15:52.704Z,80.90
2017-10-14T00:18:26.663Z,81.00
2017-10-14T00:21:00.423Z,81.00
2017-10-14T00:23:34.062Z,81.00
2017-10-14T00:26:07.782Z,80.90
2017-10-14T00:28:41.583Z,81.40
2017-10-14T00:31:16.602Z,80.80
2017-10-14T00:36:48.179Z,80.30
2017-10-14T00:39:22.003Z,80.50
2017-10-14T00:41:56.608Z,81.10
2017-10-14T00:44:30.462Z,80.50
2017-10-14T00:47:04.986Z,80.50
2017-10-14T00:49:38.831Z,80.50
2017-10-14T00:52:12.617Z,80.80
2017-10-14T00:54:46.440Z,81.10
2017-10-14T00:57:21.033Z,81.00
2017-10-14T00:59:54.822Z,81.00
2017-10-14T01:02:28.630Z,81.00
2017-10-14T01:05:02.327Z,81.00
2017-10-14T01:07:36.045Z,80.90
2017-10-14T01:10:10.640Z,81.00
2017-10-14T01:12:44.274Z,81.00
2017-10-14T01:15:18.686Z,81.00
2017-10-14T01:17:52.538Z,81.00
2017-10-14T01:20:26.289Z,81.10
2017-10-14T01:23:00.100Z,81.10
2017-10-14T01:25:33.691Z,81.10
2017-10-14T01:28:07.461Z,80.60
2017-10-14T01:30:41.258Z,80.60
2017-10-14T01:33:15.816Z,80.50
2017-10-14T01:35:49.668Z,80.50
2017-10-14T01:38:23.508Z,80.30
2017-10-14T01:40:57.446Z,80.10
2017-10-14T01:43:31.253Z,80.20
2017-10-14T01:46:05.878Z,80.20
2017-10-14T01:48:40.420Z,80.10
2017-10-14T01:51:14.208Z,80.00
2017-10-14T01:53:48.723Z,79.80
2017-10-14T01:56:23.303Z,80.00
2017-10-14T01:58:56.956Z,79.90
2017-10-14T02:01:30.764Z,79.80
2017-10-14T02:04:05.363Z,79.60
2017-10-14T02:06:38.960Z,79.60
2017-10-14T02:09:13.600Z,79.60
2017-10-14T02:11:47.364Z,79.60
2017-10-14T02:14:21.153Z,79.60
2017-10-14T02:16:55.750Z,79.20
2017-10-14T02:19:30.350Z,79.40
2017-10-14T02:22:04.046Z,79.40
2017-10-14T02:24:37.697Z,79.10
2017-10-14T02:27:12.310Z,79.00
2017-10-14T02:29:46.086Z,79.00
2017-10-14T02:32:19.782Z,79.00
2017-10-14T02:34:53.633Z,79.10
2017-10-14T02:37:27.329Z,78.90
2017-10-14T02:40:01.266Z,79.00
2017-10-14T02:42:35.842Z,79.10
2017-10-14T02:45:09.501Z,79.00
2017-10-14T02:47:43.308Z,79.50
2017-10-14T02:50:17.120Z,80.10
2017-10-14T02:52:50.897Z,80.60
2017-10-14T02:55:24.733Z,80.90
2017-10-14T02:57:59.180Z,80.80
2017-10-14T03:00:33.772Z,80.70
2017-10-14T03:03:07.537Z,81.60
2017-10-14T03:05:41.385Z,81.60
2017-10-14T03:08:15.169Z,81.80
2017-10-14T03:10:48.970Z,82.30
2017-10-14T03:13:22.739Z,82.30
2017-10-14T03:15:56.568Z,82.20
2017-10-14T03:18:30.411Z,82.40
2017-10-14T03:21:05.169Z,82.20
2017-10-14T03:23:40.013Z,82.30
2017-10-14T03:26:13.813Z,82.40
2017-10-14T03:28:47.655Z,82.40
2017-10-14T03:31:21.314Z,82.40
2017-10-14T03:33:55.200Z,82.00
2017-10-14T03:36:28.973Z,82.10
2017-10-14T03:39:02.837Z,81.90
2017-10-14T03:41:36.525Z,81.90
2017-10-14T03:44:11.104Z,82.70
2017-10-14T03:46:44.869Z,81.80
2017-10-14T03:49:18.674Z,81.90
2017-10-14T03:51:53.094Z,82.40
2017-10-14T03:54:26.930Z,82.40
2017-10-14T03:57:00.685Z,82.50
2017-10-14T03:59:35.273Z,83.40
2017-10-14T04:02:09.068Z,82.90
2017-10-14T04:04:42.854Z,82.80
2017-10-14T04:07:16.684Z,83.10
2017-10-14T04:09:50.576Z,82.90
2017-10-14T04:12:24.414Z,82.50
2017-10-14T04:14:58.103Z,82.80
2017-10-14T04:17:32.215Z,82.80
2017-10-14T04:20:06.003Z,82.50
2017-10-14T04:22:39.726Z,82.50
2017-10-14T04:25:13.569Z,82.10
2017-10-14T04:27:47.411Z,82.00
2017-10-14T04:30:21.115Z,82.00
2017-10-14T04:32:54.850Z,81.70
2017-10-14T04:35:28.692Z,81.70
2017-10-14T04:38:02.564Z,81.60
2017-10-14T04:40:36.434Z,81.60
2017-10-14T04:43:10.616Z,81.20
2017-10-14T04:45:45.106Z,81.10
2017-10-14T04:48:18.908Z,81.10
2017-10-14T04:50:52.730Z,81.20
2017-10-14T04:53:26.569Z,80.80
2017-10-14T04:56:00.268Z,80.40
2017-10-14T04:58:34.038Z,79.70
2017-10-14T05:01:07.777Z,79.60
2017-10-14T05:03:41.730Z,78.60
2017-10-14T05:06:16.238Z,78.10
2017-10-14T05:08:50.041Z,78.10
2017-10-14T05:11:23.858Z,77.90
2017-10-14T05:13:58.428Z,78.20
2017-10-14T05:16:32.273Z,78.20
2017-10-14T05:19:06.796Z,78.10
2017-10-14T05:21:40.620Z,78.10
2017-10-14T05:24:15.131Z,78.10
2017-10-14T05:26:48.885Z,78.10
2017-10-14T05:29:22.677Z,78.20
2017-10-14T05:31:56.442Z,78.70
2017-10-14T05:34:30.231Z,78.10
2017-10-14T05:37:04.157Z,78.40
2017-10-14T05:39:37.945Z,78.30
2017-10-14T05:42:11.892Z,78.20
2017-10-14T05:44:46.384Z,78.30
2017-10-14T05:47:20.053Z,78.30
2017-10-14T05:49:53.801Z,78.40
2017-10-14T05:52:27.494Z,78.70
2017-10-14T05:55:02.022Z,78.90
2017-10-14T05:57:35.901Z,78.90
2017-10-14T06:00:09.733Z,78.80
2017-10-14T06:02:43.461Z,78.50
2017-10-14T06:05:17.093Z,78.40
2017-10-14T06:07:50.897Z,78.50
2017-10-14T06:10:25.472Z,78.40
2017-10-14T06:12:59.353Z,79.10
2017-10-14T06:15:33.147Z,78.30
2017-10-14T06:18:06.887Z,78.40
2017-10-14T06:20:40.734Z,78.40
2017-10-14T06:23:14.433Z,78.30
2017-10-14T06:25:49.025Z,78.50
2017-10-14T06:28:23.610Z,78.50
2017-10-14T06:30:57.404Z,78.00
2017-10-14T06:33:31.077Z,78.20
2017-10-14T06:36:05.151Z,78.20
2017-10-14T06:38:39.067Z,78.20
2017-10-14T06:41:12.946Z,78.00
2017-10-14T06:43:48.153Z,77.90
2017-10-14T06:46:21.853Z,77.80
2017-10-14T06:48:55.508Z,77.40
2017-10-14T06:51:29.321Z,77.90
2017-10-14T06:54:03.841Z,77.80
2017-10-14T06:56:37.684Z,77.80
2017-10-14T06:59:11.349Z,77.80
2017-10-14T07:01:45.280Z,77.70
2017-10-14T07:04:51.298Z,77.40
2017-10-14T07:07:25.972Z,77.20
2017-10-14T07:09:59.585Z,77.10
2017-10-14T07:12:33.348Z,77.00
2017-10-14T07:15:07.108Z,76.90
2017-10-14T07:17:40.887Z,76.80
2017-10-14T07:20:15.540Z,76.40
2017-10-14T07:22:49.198Z,77.10
2017-10-14T07:25:22.947Z,76.20
2017-10-14T07:27:56.740Z,75.80
2017-10-14T07:30:30.545Z,75.80
2017-10-14T07:33:05.045Z,75.30
2017-10-14T07:35:39.676Z,75.20
2017-10-14T07:38:14.082Z,74.70
2017-10-14T07:40:48.146Z,74.60
2017-10-14T07:43:21.964Z,74.20
2017-10-14T07:45:57.212Z,73.80
2017-10-14T07:48:32.021Z,73.60
2017-10-14T07:51:05.802Z,73.60
2017-10-14T07:56:26.681Z,73.10
2017-10-14T07:59:01.404Z,72.80
2017-10-14T08:01:35.100Z,72.30
2017-10-14T08:04:08.965Z,72.10
2017-10-14T08:06:43.319Z,72.00
2017-10-14T08:09:17.927Z,71.10
2017-10-14T08:11:51.858Z,71.10
2017-10-14T08:14:25.713Z,70.90
2017-10-14T08:17:00.944Z,70.50
2017-10-14T08:19:36.405Z,70.10
2017-10-14T08:24:51.760Z,70.20
2017-10-14T08:27:26.293Z,69.60
2017-10-14T08:30:01.278Z,69.10
2017-10-14T08:32:35.022Z,68.80
2017-10-14T08:35:08.911Z,68.00
2017-10-14T08:37:42.702Z,67.60
2017-10-14T08:40:16.512Z,67.00
2017-10-14T08:42:50.230Z,66.80
2017-10-14T08:45:23.883Z,66.40
2017-10-14T08:47:57.521Z,66.10
2017-10-14T08:50:31.187Z,65.70
2017-10-14T08:53:04.940Z,65.70
2017-10-14T08:55:38.748Z,65.70
2017-10-14T08:58:12.554Z,65.10
2017-10-14T09:00:46.442Z,65.30
2017-10-14T09:03:20.161Z,64.80
2017-10-14T09:05:53.904Z,64.40
2017-10-14T09:08:27.728Z,63.90
2017-10-14T09:11:01.538Z,63.00
2017-10-14T09:13:36.053Z,62.20
2017-10-14T09:16:09.891Z,62.20
2017-10-14T09:18:44.391Z,61.90
2017-10-14T09:21:19.036Z,61.90
2017-10-14T09:23:52.658Z,61.90
2017-10-14T09:26:26.393Z,61.70
2017-10-14T09:29:00.941Z,61.20
2017-10-14T09:31:34.872Z,61.10
2017-10-14T09:34:08.548Z,60.60
2017-10-14T09:36:42.575Z,60.90
2017-10-14T09:39:17.830Z,60.50
2017-10-14T09:41:51.519Z,60.40
2017-10-14T09:44:26.050Z,60.50
2017-10-14T09:46:59.695Z,60.50
2017-10-14T09:49:33.492Z,60.20
2017-10-14T09:52:07.939Z,60.10
2017-10-14T09:54:41.781Z,60.00
2017-10-14T09:57:15.442Z,59.80
2017-10-14T09:59:50.291Z,59.60
2017-10-14T10:02:24.794Z,59.10
2017-10-14T10:04:58.497Z,59.10
2017-10-14T10:07:32.240Z,59.00
2017-10-14T10:10:06.226Z,59.10
2017-10-14T10:12:40.007Z,58.80
2017-10-14T10:15:13.743Z,59.00
2017-10-14T10:17:47.427Z,59.50
2017-10-14T10:20:21.085Z,58.90
2017-10-14T10:22:55.557Z,58.20
2017-10-14T10:25:29.464Z,58.20
2017-10-14T10:28:03.910Z,58.30
2017-10-14T10:30:37.769Z,58.30
2017-10-14T10:33:12.195Z,57.90
2017-10-14T10:35:46.015Z,57.80
2017-10-14T10:38:20.623Z,58.30
2017-10-14T10:40:54.395Z,58.20
2017-10-14T10:43:28.832Z,58.20
2017-10-14T10:46:02.589Z,58.40
2017-10-14T10:48:36.454Z,58.40
2017-10-14T10:51:11.211Z,58.50
2017-10-14T10:53:45.590Z,58.40
2017-10-14T10:56:19.430Z,58.50
2017-10-14T10:58:53.714Z,58.50
2017-10-14T11:01:27.505Z,58.60
2017-10-14T11:04:01.147Z,58.20
2017-10-14T11:06:34.891Z,58.20
2017-10-14T11:09:08.911Z,58.00
2017-10-14T11:11:43.357Z,57.70
2017-10-14T11:14:17.120Z,56.80
2017-10-14T11:16:51.225Z,56.90
2017-10-14T11:19:27.094Z,56.80
2017-10-14T11:22:01.060Z,57.10
2017-10-14T11:24:35.240Z,56.60
2017-10-14T11:27:09.029Z,56.90
2017-10-14T11:29:43.780Z,56.60
2017-10-14T11:32:17.952Z,56.80
2017-10-14T11:34:51.547Z,56.90
2017-10-14T11:37:25.824Z,57.00
2017-10-14T11:40:03.874Z,56.40
2017-10-14T11:42:37.688Z,56.30
2017-10-14T11:45:12.160Z,56.20
2017-10-14T11:47:45.777Z,56.20
2017-10-14T11:50:19.486Z,56.10
2017-10-14T11:52:54.833Z,55.70
2017-10-14T11:55:28.672Z,55.60
2017-10-14T11:58:02.365Z,55.60
2017-10-14T12:00:36.851Z,55.10
2017-10-14T12:03:10.607Z,55.70
2017-10-14T12:05:44.289Z,55.00
2017-10-14T12:08:17.960Z,55.40
2017-10-14T12:10:51.666Z,55.00
2017-10-14T12:13:25.475Z,55.10
2017-10-14T12:15:59.116Z,55.60
2017-10-14T12:18:33.721Z,55.60
2017-10-14T12:21:08.107Z,55.20
2017-10-14T12:23:41.868Z,55.10
2017-10-14T12:26:15.521Z,55.30
2017-10-14T12:28:49.194Z,55.00
2017-10-14T12:31:22.963Z,54.40
2017-10-14T12:33:56.741Z,54.40
2017-10-14T12:36:31.271Z,53.40
2017-10-14T12:39:04.993Z,53.40
2017-10-14T12:41:38.793Z,53.00
2017-10-14T12:44:12.373Z,52.80
2017-10-14T12:46:46.195Z,50.10
2017-10-14T12:49:19.796Z,48.50
2017-10-14T12:51:53.510Z,46.80
2017-10-14T12:54:27.164Z,47.20
2017-10-14T12:57:00.910Z,46.10
2017-10-14T12:59:34.496Z,45.40
2017-10-14T13:02:08.221Z,44.70
2017-10-14T13:04:42.005Z,44.50
2017-10-14T13:07:15.770Z,43.80
2017-10-14T13:09:49.549Z,42.90
2017-10-14T13:12:24.124Z,42.60
2017-10-14T13:14:57.725Z,42.60
2017-10-14T13:17:31.428Z,45.30
2017-10-14T13:20:05.136Z,44.70
2017-10-14T13:22:38.852Z,44.00
2017-10-14T13:25:13.185Z,45.10
2017-10-14T13:27:46.864Z,45.10
2017-10-14T13:30:20.508Z,44.40
2017-10-14T13:32:54.234Z,43.70
2017-10-14T13:35:27.969Z,41.50
2017-10-14T13:38:01.667Z,40.90
2017-10-14T13:40:35.513Z,41.40
2017-10-14T13:43:09.898Z,41.80
2017-10-14T13:45:43.663Z,41.80
2017-10-14T13:48:18.225Z,40.60
2017-10-14T13:50:51.834Z,40.70
2017-10-14T13:53:26.284Z,38.80
2017-10-14T13:56:00.000Z,38.80
2017-10-14T13:58:33.758Z,40.80
2017-10-14T14:01:08.309Z,39.10
2017-10-14T14:03:42.113Z,39.10
2017-10-14T14:06:15.689Z,38.80
2017-10-14T14:08:49.497Z,38.20
2017-10-14T14:11:23.927Z,36.80
2017-10-14T14:13:57.721Z,36.70
2017-10-14T14:16:31.460Z,36.00
2017-10-14T14:19:05.293Z,36.70
2017-10-14T14:21:39.067Z,35.60
2017-10-14T14:24:12.878Z,37.70
2017-10-14T14:26:46.616Z,37.20
2017-10-14T14:29:21.063Z,36.40
2017-10-14T14:31:54.775Z,36.40
2017-10-14T14:34:28.520Z,36.00
2017-10-14T14:37:03.029Z,36.30
2017-10-14T14:39:36.937Z,36.20
2017-10-14T14:42:10.691Z,36.20
2017-10-14T14:44:44.376Z,34.70
2017-10-14T14:47:18.206Z,35.00
2017-10-14T14:49:51.961Z,35.20
2017-10-14T14:52:25.549Z,34.90
2017-10-14T14:55:00.093Z,33.70
2017-10-14T14:57:33.764Z,33.70
2017-10-14T15:00:07.520Z,33.70
2017-10-14T15:02:41.096Z,33.20
2017-10-14T15:05:14.826Z,33.50
2017-10-14T15:07:48.530Z,33.90
2017-10-14T15:10:22.268Z,34.50
2017-10-14T15:12:56.602Z,34.40
2017-10-14T15:15:30.397Z,34.40
2017-10-14T15:18:04.916Z,34.00
2017-10-14T15:20:38.663Z,34.00
2017-10-14T15:23:12.352Z,34.00
2017-10-14T15:25:46.917Z,35.50
2017-10-14T15:28:21.266Z,35.00
2017-10-14T15:30:55.068Z,35.00
2017-10-14T15:33:28.741Z,34.10
2017-10-14T15:36:03.277Z,33.50
2017-10-14T15:38:37.069Z,33.50
2017-10-14T15:41:10.840Z,38.00
2017-10-14T15:43:44.513Z,42.20
2017-10-14T15:46:18.280Z,45.10
2017-10-14T15:48:52.107Z,47.60
2017-10-14T15:51:25.961Z,48.50
2017-10-14T15:54:00.560Z,49.80
2017-10-14T15:56:34.398Z,50.30
2017-10-14T15:59:08.167Z,51.80
2017-10-14T16:01:41.915Z,51.80
2017-10-14T16:04:15.789Z,52.60
2017-10-14T16:06:50.381Z,53.60
2017-10-14T16:09:23.999Z,53.60
2017-10-14T16:11:57.656Z,54.10
2017-10-14T16:14:31.430Z,54.80
2017-10-14T16:17:05.229Z,55.20
2017-10-14T16:19:39.029Z,55.40
2017-10-14T16:22:12.805Z,55.80
2017-10-14T16:24:46.545Z,56.30
2017-10-14T16:27:20.200Z,56.80
2017-10-14T16:29:53.946Z,57.60
2017-10-14T16:32:27.784Z,57.90
2017-10-14T16:35:01.633Z,58.50
2017-10-14T16:37:35.365Z,58.80
2017-10-14T16:40:09.156Z,58.80
2017-10-14T16:42:42.912Z,59.30
2017-10-14T16:45:16.548Z,60.00
2017-10-14T16:47:50.284Z,60.40
2017-10-14T16:50:24.155Z,60.80
2017-10-14T16:52:57.942Z,61.10
2017-10-14T16:55:31.739Z,61.60
2017-10-14T16:58:05.298Z,61.80
2017-10-14T17:00:39.086Z,62.50
2017-10-14T17:03:12.784Z,62.80
2017-10-14T17:05:47.344Z,64.10
2017-10-14T17:08:21.276Z,64.10
2017-10-14T17:10:54.878Z,64.70
2017-10-14T17:13:28.688Z,65.00
2017-10-14T17:16:03.204Z,66.40
2017-10-14T17:18:36.978Z,66.40
2017-10-14T17:21:10.610Z,66.40
2017-10-14T17:23:44.348Z,66.40
2017-10-14T17:26:18.038Z,66.60
2017-10-14T17:28:53.318Z,68.00
2017-10-14T17:31:27.182Z,67.80
2017-10-14T17:34:00.833Z,67.90
2017-10-14T17:36:34.675Z,68.70
2017-10-14T17:39:09.217Z,69.60
2017-10-14T17:41:42.890Z,69.50
2017-10-14T17:44:16.772Z,69.80
2017-10-14T17:46:50.590Z,69.80
2017-10-14T17:49:24.392Z,70.10
2017-10-14T17:51:58.216Z,70.10
2017-10-14T17:54:32.000Z,70.40
2017-10-14T17:57:05.803Z,70.40
2017-10-14T17:59:39.589Z,70.60
2017-10-14T18:02:13.337Z,71.20
2017-10-14T18:04:47.600Z,71.40
2017-10-14T18:07:21.225Z,72.10
2017-10-14T18:09:55.025Z,72.50
2017-10-14T18:12:29.066Z,72.90
2017-10-14T18:15:02.866Z,73.00
2017-10-14T18:17:37.192Z,72.70
2017-10-14T18:20:11.481Z,73.40
2017-10-14T18:22:46.000Z,74.00
2017-10-14T18:25:20.404Z,74.40
2017-10-14T18:27:54.805Z,74.00
2017-10-14T18:30:29.370Z,74.10
2017-10-14T18:33:04.021Z,74.00
2017-10-14T18:35:37.765Z,74.00
2017-10-14T18:38:12.370Z,74.00
2017-10-14T18:40:46.149Z,73.90
2017-10-14T18:43:20.678Z,75.20
2017-10-14T18:45:55.782Z,75.00
2017-10-14T18:48:29.437Z,75.00
2017-10-14T18:51:03.209Z,75.70
2017-10-14T18:53:36.996Z,76.40
2017-10-14T18:56:10.789Z,76.60
2017-10-14T18:58:44.540Z,76.70
2017-10-14T19:01:18.358Z,77.20
2017-10-14T19:03:52.222Z,77.60
2017-10-14T19:06:25.857Z,77.90
2017-10-14T19:08:59.676Z,78.00
2017-10-14T19:11:33.477Z,77.50
2017-10-14T19:14:07.266Z,77.60
2017-10-14T19:16:40.988Z,78.20
2017-10-14T19:19:15.382Z,78.70
2017-10-14T19:21:49.808Z,79.00
2017-10-14T19:24:23.561Z,79.00
2017-10-14T19:26:57.235Z,78.90
2017-10-14T19:29:31.021Z,78.90
2017-10-14T19:32:04.724Z,79.10
2017-10-14T19:34:38.568Z,79.10
2017-10-14T19:37:12.372Z,79.80
2017-10-14T19:39:46.187Z,79.20
2017-10-14T19:42:20.005Z,80.50
2017-10-14T19:44:53.752Z,79.80
2017-10-14T19:47:27.368Z,80.00
2017-10-14T19:50:01.614Z,80.00
2017-10-14T19:52:35.223Z,79.90
2017-10-14T19:55:08.995Z,80.10
2017-10-14T19:57:43.517Z,81.00
2017-10-14T20:00:17.355Z,80.80
2017-10-14T20:02:51.017Z,80.70
2017-10-14T20:05:24.865Z,81.20
2017-10-14T20:07:58.515Z,81.10
2017-10-14T20:10:32.117Z,81.30
2017-10-14T20:13:05.880Z,81.20
2017-10-14T20:15:39.636Z,81.40
2017-10-14T20:18:13.591Z,81.80
2017-10-14T20:20:47.325Z,81.20
2017-10-14T20:23:21.008Z,81.70
2017-10-14T20:25:55.532Z,81.90
2017-10-14T20:28:29.345Z,81.90
2017-10-14T20:31:03.094Z,82.00
2017-10-14T20:33:36.957Z,82.40
2017-10-14T20:36:11.470Z,82.00
2017-10-14T20:38:45.941Z,82.00
2017-10-14T20:41:19.690Z,81.90
2017-10-14T20:43:54.814Z,82.00
2017-10-14T20:46:29.368Z,82.40
2017-10-14T20:49:03.289Z,82.40
2017-10-14T20:51:37.844Z,81.90
2017-10-14T20:54:12.447Z,82.00
2017-10-14T20:56:46.210Z,82.00
2017-10-14T20:59:20.792Z,82.20
2017-10-14T21:01:54.371Z,82.20
2017-10-14T21:04:28.204Z,82.10
2017-10-14T21:07:02.101Z,82.00
2017-10-14T21:09:36.700Z,82.10
2017-10-14T21:12:10.515Z,82.20
2017-10-14T21:14:45.018Z,81.80
2017-10-14T21:17:18.670Z,81.80
2017-10-14T21:19:52.330Z,81.70
2017-10-14T21:22:26.105Z,81.20
2017-10-14T21:24:59.729Z,81.20
2017-10-14T21:27:33.529Z,81.10
2017-10-14T21:30:08.210Z,81.10
2017-10-14T21:32:41.890Z,81.10
2017-10-14T21:35:16.550Z,81.70
2017-10-14T21:37:50.182Z,81.70
2017-10-14T21:40:23.953Z,81.70
2017-10-14T21:42:57.709Z,82.00
2017-10-14T21:45:31.497Z,82.00
2017-10-14T21:48:05.462Z,82.30
2017-10-14T21:50:39.245Z,82.30
2017-10-14T21:53:13.022Z,82.40
2017-10-14T21:55:46.643Z,82.10
2017-10-14T21:58:20.385Z,82.20
2017-10-14T22:00:54.105Z,82.80
2017-10-14T22:03:28.549Z,83.10
2017-10-14T22:06:02.345Z,83.00
2017-10-14T22:08:36.094Z,83.40
2017-10-14T22:11:09.703Z,83.50
2017-10-14T22:13:44.684Z,83.60
2017-10-14T22:16:19.137Z,84.00
2017-10-14T22:18:52.946Z,84.00
2017-10-14T22:21:27.649Z,84.70
2017-10-14T22:24:01.502Z,84.60
2017-10-14T22:26:35.393Z,84.60
2017-10-14T22:29:08.966Z,85.00
2017-10-14T22:31:42.805Z,85.30
2017-10-14T22:34:16.633Z,86.10
2017-10-14T22:36:51.236Z,87.00
2017-10-14T22:39:24.873Z,86.90
2017-10-14T22:41:58.530Z,87.20
2017-10-14T22:44:32.245Z,87.50
2017-10-14T22:47:06.885Z,87.80
2017-10-14T22:49:40.546Z,87.80
2017-10-14T22:52:14.337Z,88.00
2017-10-14T22:54:48.958Z,88.00
2017-10-14T22:57:22.761Z,88.00
2017-10-14T22:59:57.313Z,87.70
2017-10-14T23:02:31.130Z,87.70
2017-10-14T23:05:04.887Z,87.90
2017-10-14T23:07:38.565Z,87.70
2017-10-14T23:10:12.318Z,87.60
2017-10-14T23:12:46.017Z,87.40
2017-10-14T23:15:19.796Z,87.30
2017-10-14T23:17:53.570Z,87.50
2017-10-14T23:20:27.413Z,87.90
2017-10-14T23:23:01.140Z,87.90
2017-10-14T23:25:34.816Z,88.10
2017-10-14T23:28:08.685Z,88.20
2017-10-14T23:30:42.427Z,88.40
2017-10-14T23:33:16.169Z,88.50
2017-10-14T23:35:49.945Z,87.90
2017-10-14T23:38:23.713Z,87.80
2017-10-14T23:40:57.474Z,87.60
2017-10-14T23:43:32.024Z,88.20
2017-10-14T23:46:05.654Z,88.20
2017-10-14T23:48:40.220Z,88.30
2017-10-14T23:51:13.808Z,88.30
2017-10-14T23:53:48.258Z,88.30
2017-10-14T23:56:22.034Z,88.30
2017-10-14T23:58:55.734Z,88.30
